• Join FlightAware (Why Join?)
  • Login
  • US Flag 
03:03AM EDT


 

Airport Tracker/Info


-or-


 

Live Flight TrackerFlight Track Log ✈ N5171E ✈ 29-Jul-2012 ✈ KEYW - KJKA

Flight Track Log - Related Links

Times and Time Zones

All times are in EDT time to prevent confusion due to time zone crossing. See the N5171E flight status page for this flight to view local times or setup timezone preferences in your user account.

Time Position Orientation Groundspeed Altitude Reporting Facility
EDT Latitude Longitude Course Direction KTS MPH feet Rate Location/Type
08:14AM 24.7636 -81.7736 358° North 130 150 8,000  Level Miami Center
08:15AM 24.7908 -81.7747 North 94 108 6,000 -1,020 Descending Miami Center
08:16AM 24.8181 -81.7733 North 94 108 6,000  Level Miami Center
08:17AM 24.8472 -81.7722 North 130 150 6,000  Level Miami Center
08:18AM 24.8725 -81.7711 North 114 131 6,000 960 Level Miami Center
08:19AM 24.8997 -81.7697 358° North 102 117 8,000 960 Climbing Miami Center
08:20AM 24.9372 -81.7714 North 108 124 8,000  Level Miami Center
08:21AM 24.9747 -81.7683 North 120 138 8,000  Level Miami Center
08:22AM 25.0144 -81.7675 North 120 138 8,000  Level Miami Center
08:23AM 25.0542 -81.7669 North 120 138 8,000  Level Miami Center
08:24AM 25.0939 -81.7661 North 120 138 8,000  Level Miami Center
08:25AM 25.1317 -81.7653 North 120 138 8,000  Level Miami Center
08:26AM 25.1714 -81.7622 North 120 138 8,000  Level Miami Center
08:27AM 25.2131 -81.7617 North 120 138 8,000  Level Miami Center
08:28AM 25.2528 -81.7611 358° North 120 138 8,000  Level Miami Center
08:29AM 25.2925 -81.7625 North 120 138 8,000  Level Miami Center
08:30AM 25.3342 -81.7597 North 120 138 8,000  Level Miami Center
08:31AM 25.3739 -81.7589 358° North 120 138 8,000  Level Miami Center
08:32AM 25.4136 -81.7606 North 120 138 8,000  Level Miami Center
08:33AM 25.4533 -81.7600 10° North 120 138 8,000  Level Miami Center
08:34AM 25.4933 -81.7522 355° North 120 138 8,000  Level Miami Center
08:35AM 25.5306 -81.7561 North 125 144 8,000  Level Miami Center
08:36AM 25.5747 -81.7533 358° North 125 144 8,000  Level Miami Center
08:37AM 25.6142 -81.7550 North 120 138 8,000  Level Miami Center
08:38AM 25.6561 -81.7544 358° North 120 138 8,000  Level Miami Center
08:39AM 25.6956 -81.7558 North 120 138 8,000  Level Miami Center
08:40AM 25.7375 -81.7531 North 120 138 8,000  Level Miami Center
08:41AM 25.7814 -81.7525 North 125 144 8,000  Level Miami Center
08:42AM 25.8211 -81.7517 356° North 130 150 8,000  Level Miami Center
09:11AM 27.0056 -81.8547 349° North 135 155 8,000  Level Miami Center
09:12AM 27.0447 -81.8633 352° North 146 168 8,000  Level Miami Center
09:13AM 27.0842 -81.8697 349° North 153 176 8,000  Level Miami Center
09:14AM 27.1236 -81.8783 348° North 153 176 8,000  Level Miami Center
09:15AM 27.1608 -81.8869 349° North 147 169 8,000  Level Miami Center
09:16AM 27.2022 -81.8958 352° North 147 169 8,000  Level Miami Center
09:17AM 27.2417 -81.9022 349° North 152 175 8,000  Level Miami Center
09:18AM 27.2811 -81.9108 352° North 152 175 8,000  Level Miami Center
09:19AM 27.3206 -81.9172 349° North 152 175 8,000  Level Miami Center
09:20AM 27.3600 -81.9261 349° North 152 175 8,000  Level Miami Center
09:21AM 27.4014 -81.9350 352° North 152 175 8,000  Level Miami Center
09:22AM 27.4408 -81.9414 355° North 152 175 8,000  Level Miami Center
09:23AM 27.4803 -81.9456 352° North 152 175 8,000  Level Miami Center
09:24AM 27.5197 -81.9519 352° North 152 175 8,000  Level Miami Center
09:25AM 27.5592 -81.9583 352° North 152 175 8,000  Level Miami Center
09:26AM 27.5986 -81.9647 349° North 152 175 8,000  Level Miami Center
09:27AM 27.6378 -81.9736 355° North 152 175 8,000  Level Miami Center
09:28AM 27.6794 -81.9778 352° North 152 175 8,000  Level Miami Center
09:29AM 27.7189 -81.9842 352° North 152 175 8,000  Level Miami Center
09:30AM 27.7625 -81.9908 351° North 152 175 8,000  Level Miami Center
09:31AM 27.7997 -81.9972 346° North 157 181 8,000  Level Miami Center
09:32AM 27.8411 -82.0086 355° North 157 181 8,000  Level Miami Center
09:33AM 27.8806 -82.0125 349° North 157 181 8,000  Level Miami Center
09:34AM 27.9200 -82.0214 352° North 152 175 8,000  Level Miami Center
09:35AM 27.9614 -82.0281 339° North 152 175 8,000  Level Miami Center
09:36AM 27.9983 -82.0439 337° Northwest 152 175 8,000  Level Miami Center
09:37AM 28.0353 -82.0619 327° Northwest 152 175 8,000  Level Miami Center
09:38AM 28.0697 -82.0869 325° Northwest 147 169 8,000  Level Miami Center
10:06AM 28.9219 -82.7669 304° West 130 150 8,000  Level Jacksonville Center
10:07AM 28.9472 -82.8094 313° West 150 173 8,000  Level Jacksonville Center
10:08AM 28.9722 -82.8403 309° West 150 173 8,000  Level Jacksonville Center
10:09AM 28.9994 -82.8783 306° West 150 173 8,000  Level Jacksonville Center
10:10AM 29.0222 -82.9139 311° West 150 173 8,000  Level Jacksonville Center
10:11AM 29.0472 -82.9472 309° West 152 175 8,000  Level Jacksonville Center
10:12AM 29.0722 -82.9828 306° West 152 175 8,000  Level Jacksonville Center
10:13AM 29.0953 -83.0186 311° West 152 175 8,000  Level Jacksonville Center
10:14AM 29.1203 -83.0519 304° West 152 175 8,000  Level Jacksonville Center
10:15AM 29.1411 -83.0875 309° West 152 175 8,000  Level Jacksonville Center
10:16AM 29.1661 -83.1233 308° West 152 175 8,000  Level Jacksonville Center
10:17AM 29.1889 -83.1567 304° West 152 175 8,000  Level Jacksonville Center
10:18AM 29.2097 -83.1925 309° West 152 175 8,000  Level Jacksonville Center
10:19AM 29.2347 -83.2281 308° West 147 169 8,000  Level Jacksonville Center
10:20AM 29.2575 -83.2617 306° West 152 175 8,000  Level Jacksonville Center
10:21AM 29.2783 -83.2950 304° West 147 169 8,000  Level Jacksonville Center
10:22AM 29.3011 -83.3331 306° West 152 175 8,000  Level Jacksonville Center
10:23AM 29.3242 -83.3689 298° West 152 175 8,000  Level Jacksonville Center
10:24AM 29.3406 -83.4047 305° West 146 168 8,000  Level Jacksonville Center
10:25AM 29.3614 -83.4383 302° West 146 168 8,000  Level Jacksonville Center
10:26AM 29.3819 -83.4764 306° West 146 168 8,000  Level Jacksonville Center
10:27AM 29.4050 -83.5122 301° West 141 162 8,000  Level Jacksonville Center
10:28AM 29.4236 -83.5483 308° West 141 162 8,000  Level Jacksonville Center
10:29AM 29.4464 -83.5817 312° West 141 162 8,000  Level Jacksonville Center
10:30AM 29.4711 -83.6131 310° West 152 175 8,000  Level Jacksonville Center
10:31AM 29.4939 -83.6442 304° West 145 167 8,000  Level Jacksonville Center
10:32AM 29.5147 -83.6800 315° West 145 167 8,000  Level Jacksonville Center
10:33AM 29.5417 -83.7114 312° West 145 167 8,000  Level Jacksonville Center
10:34AM 29.5644 -83.7403 308° West 145 167 8,000  Level Jacksonville Center
10:35AM 29.5869 -83.7739 315° West 145 167 8,000  Level Jacksonville Center
10:36AM 29.6139 -83.8050 317° Northwest 145 167 8,000  Level Jacksonville Center
10:37AM 29.6408 -83.8342 305° West 145 167 8,000  Level Jacksonville Center
10:38AM 29.6594 -83.8653 308° West 145 167 8,000  Level Jacksonville Center
10:39AM 29.6842 -83.9014 302° West 145 167 8,000  Level Jacksonville Center
10:40AM 29.7047 -83.9400 306° West 145 167 8,000  Level Jacksonville Center
10:41AM 29.7275 -83.9761 308° West 145 167 8,000  Level Jacksonville Center
10:42AM 29.7500 -84.0097 301° West 145 167 8,000  Level Jacksonville Center
10:43AM 29.7686 -84.0458 310° West 145 167 8,000  Level Jacksonville Center
10:44AM 29.7914 -84.0772 310° West 145 167 8,000  Level Jacksonville Center
10:45AM 29.8161 -84.1111 300° West 145 167 8,000  Level Jacksonville Center
10:46AM 29.8344 -84.1472 305° West 145 167 8,000  Level Jacksonville Center
10:47AM 29.8550 -84.1811 308° West 145 167 8,000  Level Jacksonville Center
10:48AM 29.8775 -84.2147 303° West 145 167 8,000  Level Jacksonville Center
10:49AM 29.8981 -84.2511 307° West 145 167 8,000  Level Jacksonville Center
10:50AM 29.9206 -84.2850 303° West 145 167 8,000  Level Jacksonville Center
10:51AM 29.9411 -84.3211 283° West 145 167 8,000  Level Jacksonville Center
10:52AM 29.9628 -84.4342 244° Southwest 145 167 8,000  Level Jacksonville Center
10:53AM 29.9414 -84.4842 256° West 145 167 8,000  Level Jacksonville Center
10:54AM 29.9258 -84.5558 254° West 145 167 8,000  Level Jacksonville Center
10:55AM 29.9081 -84.6272 256° West 145 167 8,000  Level Jacksonville Center
10:56AM 29.8925 -84.6989 253° West 145 167 8,000  Level Jacksonville Center
10:57AM 29.8814 -84.7419 North 145 167 8,000  Level Jacksonville Center
11:09AM 30.3132 -84.6860 271° West  Level FlightAware Approximate
11:10AM 30.3140 -84.7303 18° North  Level FlightAware Approximate
11:11AM 30.3503 -84.7170 270° West  Level FlightAware Approximate
11:12AM 30.3505 -84.7613 270° West  Level FlightAware Approximate
11:13AM 30.3507 -84.8057 270° West  Level FlightAware Approximate
11:14AM 30.3509 -84.8500 270° West  Level FlightAware Approximate
11:15AM 30.3511 -84.8944 270° West  Level FlightAware Approximate
11:16AM 30.3512 -84.9387 270° West  Level FlightAware Approximate
11:17AM 30.3514 -84.9831 270° West  Level FlightAware Approximate
11:18AM 30.3515 -85.0275 270° West  Level FlightAware Approximate
11:19AM 30.3516 -85.0718 270° West  Level FlightAware Approximate
11:20AM 30.3517 -85.1161 270° West  Level FlightAware Approximate
11:21AM 30.3518 -85.1605 270° West  Level FlightAware Approximate
11:22AM 30.3518 -85.2048 270° West  Level FlightAware Approximate
11:23AM 30.3519 -85.2492 270° West  Level FlightAware Approximate
11:24AM 30.3519 -85.2935 270° West  Level FlightAware Approximate
11:25AM 30.3519 -85.3379 270° West  Level FlightAware Approximate
11:26AM 30.3519 -85.3822 270° West  Level FlightAware Approximate
11:27AM 30.3519 -85.4266 270° West  Level FlightAware Approximate
11:28AM 30.3519 -85.4709 270° West  Level FlightAware Approximate
11:29AM 30.3519 -85.5153 270° West  Level FlightAware Approximate
11:30AM 30.3518 -85.5596 270° West  Level FlightAware Approximate
11:31AM 30.3517 -85.6040 270° West  Level FlightAware Approximate
11:32AM 30.3516 -85.6484 270° West  Level FlightAware Approximate
11:33AM 30.3515 -85.6927 270° West  Level FlightAware Approximate
11:34AM 30.3514 -85.7371 270° West  Level FlightAware Approximate
11:35AM 30.3513 -85.7814 270° West  Level FlightAware Approximate
11:36AM 30.3511 -85.8258 270° West  Level FlightAware Approximate
11:37AM 30.3510 -85.8701 270° West  Level FlightAware Approximate
11:38AM 30.3508 -85.9145 270° West  Level FlightAware Approximate
11:39AM 30.3506 -85.9588 270° West  Level FlightAware Approximate
11:40AM 30.3504 -86.0032 270° West  Level FlightAware Approximate
11:41AM 30.3502 -86.0475 270° West  Level FlightAware Approximate
11:42AM 30.3500 -86.0919 270° West  Level FlightAware Approximate
11:43AM 30.3497 -86.1362 270° West  Level FlightAware Approximate
11:44AM 30.3494 -86.1806 270° West  Level FlightAware Approximate
11:45AM 30.3492 -86.2249 270° West  Level FlightAware Approximate
11:46AM 30.3489 -86.2693 270° West  Level FlightAware Approximate
11:47AM 30.3486 -86.3136 270° West  Level FlightAware Approximate
11:48AM 30.3482 -86.3580 270° West  Level FlightAware Approximate
11:49AM 30.3479 -86.4023 269° West  Level FlightAware Approximate
11:50AM 30.3475 -86.4467 269° West  Level FlightAware Approximate
11:51AM 30.3472 -86.4910 269° West  Level FlightAware Approximate
11:52AM 30.3468 -86.5354 269° West  Level FlightAware Approximate
11:53AM 30.3464 -86.5797 269° West  Level FlightAware Approximate
11:54AM 30.3460 -86.6241 269° West  Level FlightAware Approximate
11:55AM 30.3455 -86.6684 269° West  Level FlightAware Approximate
11:56AM 30.3451 -86.7128 269° West  Level FlightAware Approximate
11:57AM 30.3446 -86.7571 269° West  Level FlightAware Approximate
11:58AM 30.3442 -86.8015 269° West  Level FlightAware Approximate
11:59AM 30.3437 -86.8458 269° West  Level FlightAware Approximate
12:00PM 30.3432 -86.8902 269° West  Level FlightAware Approximate
12:01PM 30.3426 -86.9345 265° West  Level FlightAware Approximate
12:33PM 30.2833 -87.6667 325° Northwest  Level FlightAware Approximate
12:34PM 30.3158 -87.6930 145° Southeast  Level Estimated
12:35PM 30.2833 -87.6667 325° Northwest  Level FlightAware Approximate
12:36PM 30.3158 -87.6930 145° Southeast  Level Estimated
12:37PM 30.2833 -87.6667 325° Northwest  Level FlightAware Approximate
12:38PM 30.3158 -87.6930 145° Southeast  Level Estimated
12:39PM 30.2833 -87.6667 145° Southeast  Level FlightAware Approximate